Time;durP1;ratioP1;P1;durP2;ratioP2;P2;SDS_P1;SDS_P2;PMS_P1;PMS_P2;Temp;Humidity;BMP_temperature;BMP_pressure;BME280_temperature;BME280_humidity;BME280_pressure;Samples;Min_cycle;Max_cycle;Signal;HPM_P1;HPM_P2
2023/07/24 00:01:19;;;;;;;11.07;5.07;;;16.60;95.00;;;;;;5032358;28;20653;-70
2023/07/24 00:03:45;;;;;;;11.13;4.50;;;16.70;95.40;;;;;;5002342;28;20095;-70
2023/07/24 00:06:11;;;;;;;9.10;4.83;;;16.70;95.20;;;;;;5006446;28;20033;-70
2023/07/24 00:08:38;;;;;;;14.50;5.63;;;16.70;95.30;;;;;;5006837;28;20291;-70
2023/07/24 00:11:07;;;;;;;12.00;4.93;;;16.70;96.10;;;;;;4994779;28;20588;-70
2023/07/24 00:13:33;;;;;;;11.57;5.67;;;16.70;96.00;;;;;;4997568;28;20431;-70
2023/07/24 00:15:58;;;;;;;12.07;5.23;;;16.80;96.90;;;;;;5003389;28;20364;-70
2023/07/24 00:18:24;;;;;;;13.40;5.13;;;16.70;96.00;;;;;;5005261;28;20508;-70
2023/07/24 00:20:50;;;;;;;12.33;5.17;;;16.70;95.70;;;;;;5006417;28;20037;-70
2023/07/24 00:23:15;;;;;;;14.50;6.37;;;16.70;96.00;;;;;;5000876;28;20295;-70
2023/07/24 00:25:41;;;;;;;15.10;6.17;;;16.70;95.70;;;;;;5006076;28;20046;-70
2023/07/24 00:28:07;;;;;;;15.90;5.80;;;16.70;95.90;;;;;;5003907;28;20044;-70
2023/07/24 00:30:33;;;;;;;11.17;6.17;;;16.70;96.00;;;;;;5004125;28;20144;-70
2023/07/24 00:32:58;;;;;;;15.20;6.07;;;16.60;96.10;;;;;;4999410;28;20033;-70
2023/07/24 00:35:25;;;;;;;12.73;5.77;;;16.60;96.40;;;;;;5006926;28;20041;-70
2023/07/24 00:37:51;;;;;;;13.27;6.53;;;16.60;96.20;;;;;;5013798;28;20045;-70
2023/07/24 00:40:16;;;;;;;13.97;6.40;;;16.60;97.20;;;;;;5003045;28;20288;-70
2023/07/24 00:42:47;;;;;;;12.30;6.90;;;16.60;96.80;;;;;;5009838;28;20053;-70
2023/07/24 00:45:12;;;;;;;19.87;7.47;;;16.60;97.00;;;;;;5000859;28;20042;-70
2023/07/24 00:47:38;;;;;;;14.83;6.57;;;16.60;97.10;;;;;;5011026;28;20288;-71
2023/07/24 00:50:04;;;;;;;19.17;6.20;;;16.60;96.90;;;;;;5010948;28;20076;-70
2023/07/24 00:52:30;;;;;;;12.37;6.27;;;16.50;97.60;;;;;;5010733;28;20045;-70
2023/07/24 00:54:56;;;;;;;14.27;6.83;;;16.50;97.20;;;;;;5007108;28;20302;-70
2023/07/24 00:57:22;;;;;;;14.67;6.33;;;16.50;97.60;;;;;;5014970;28;20425;-70
2023/07/24 00:59:48;;;;;;;14.07;6.67;;;16.50;97.90;;;;;;5002410;28;20052;-70
2023/07/24 01:02:14;;;;;;;13.90;6.40;;;16.50;98.20;;;;;;5022523;28;20292;-70
2023/07/24 01:04:40;;;;;;;17.37;6.37;;;16.40;97.70;;;;;;5046596;28;20041;-70
2023/07/24 01:07:06;;;;;;;17.57;7.20;;;16.40;98.10;;;;;;5053729;28;20064;-70
2023/07/24 01:09:31;;;;;;;15.17;6.67;;;16.40;98.20;;;;;;5060050;28;20733;-70
2023/07/24 01:12:03;;;;;;;13.43;7.40;;;16.40;98.10;;;;;;5049740;28;20042;-70
2023/07/24 01:14:47;;;;;;;13.07;6.53;;;16.40;99.20;;;;;;5032183;28;20068;-70
2023/07/24 01:17:18;;;;;;;15.67;7.07;;;16.40;98.50;;;;;;5043612;28;20915;-70
2023/07/24 01:19:52;;;;;;;13.03;7.23;;;16.30;98.80;;;;;;5050072;28;20301;-70
2023/07/24 01:22:30;;;;;;;16.37;6.97;;;16.30;98.70;;;;;;5039281;28;20734;-70
2023/07/24 01:25:18;;;;;;;16.07;7.57;;;16.30;99.20;;;;;;5042336;28;20287;-70
2023/07/24 01:27:45;;;;;;;16.93;8.20;;;16.30;99.00;;;;;;5042365;28;20383;-70
2023/07/24 01:30:12;;;;;;;16.47;6.97;;;16.30;99.20;;;;;;5055389;28;20352;-70
2023/07/24 01:32:39;;;;;;;14.20;7.90;;;16.20;99.60;;;;;;5044849;28;20636;-70
2023/07/24 01:35:05;;;;;;;16.23;7.97;;;16.30;99.60;;;;;;5042059;28;20819;-70
2023/07/24 01:37:33;;;;;;;15.90;7.90;;;16.30;99.70;;;;;;5023870;28;20292;-70
2023/07/24 01:40:00;;;;;;;17.43;8.33;;;16.30;99.90;;;;;;5041027;28;20315;-70
2023/07/24 01:42:26;;;;;;;15.40;7.93;;;16.40;99.90;;;;;;5050740;28;20775;-70
2023/07/24 01:44:55;;;;;;;15.27;8.33;;;16.40;99.90;;;;;;5042227;28;20291;-70
2023/07/24 01:47:22;;;;;;;16.83;8.27;;;16.50;99.90;;;;;;5047292;28;20280;-70
2023/07/24 01:49:48;;;;;;;15.67;8.13;;;16.50;99.60;;;;;;5041740;28;20769;-70
2023/07/24 01:52:14;;;;;;;14.30;7.73;;;16.60;99.70;;;;;;5049286;28;20288;-70
2023/07/24 01:54:40;;;;;;;21.33;8.33;;;16.60;99.60;;;;;;5049672;28;20624;-70
2023/07/24 01:57:06;;;;;;;17.00;8.23;;;16.60;99.60;;;;;;5019881;28;20120;-70
2023/07/24 01:59:32;;;;;;;16.77;7.43;;;16.60;99.40;;;;;;5049148;28;20378;-70
2023/07/24 02:01:57;;;;;;;13.80;8.53;;;16.70;99.30;;;;;;5043364;28;20061;-70
2023/07/24 02:04:23;;;;;;;14.83;8.17;;;16.70;99.30;;;;;;5033481;28;20069;-70
2023/07/24 02:06:49;;;;;;;13.73;8.13;;;16.70;99.10;;;;;;5038704;28;20049;-70
2023/07/24 02:09:17;;;;;;;16.57;8.03;;;16.70;99.00;;;;;;5038886;28;20048;-70
2023/07/24 02:11:43;;;;;;;14.17;7.90;;;16.80;99.00;;;;;;5048453;28;20847;-70
2023/07/24 02:14:09;;;;;;;12.53;7.80;;;16.80;98.80;;;;;;5048030;28;20292;-70
2023/07/24 02:16:36;;;;;;;12.43;7.33;;;16.80;98.60;;;;;;5041697;28;20049;-70
2023/07/24 02:19:01;;;;;;;13.83;7.47;;;16.80;98.70;;;;;;5043740;28;20319;-70
2023/07/24 02:21:27;;;;;;;15.30;7.80;;;16.80;98.80;;;;;;5040687;28;20767;-71
2023/07/24 02:23:53;;;;;;;15.90;7.80;;;16.80;98.80;;;;;;5048847;28;20033;-70
2023/07/24 02:26:19;;;;;;;11.80;7.10;;;16.80;98.60;;;;;;5040951;28;20500;-70
2023/07/24 02:28:44;;;;;;;14.50;7.57;;;16.80;98.70;;;;;;5049235;28;20052;-70
2023/07/24 02:31:11;;;;;;;17.00;7.73;;;16.80;98.60;;;;;;5045149;28;20036;-70
2023/07/24 02:33:36;;;;;;;15.93;7.50;;;16.80;98.40;;;;;;5047771;28;20041;-70
2023/07/24 02:36:02;;;;;;;14.40;6.50;;;16.80;98.30;;;;;;5046472;28;20824;-70
2023/07/24 02:38:28;;;;;;;14.97;7.17;;;16.90;98.40;;;;;;5047529;28;20037;-70
2023/07/24 02:40:54;;;;;;;13.67;7.13;;;16.90;98.40;;;;;;5048328;28;20045;-70
2023/07/24 02:43:20;;;;;;;17.13;6.30;;;16.90;98.50;;;;;;5041820;28;20108;-71
2023/07/24 02:45:45;;;;;;;14.80;6.30;;;16.90;98.40;;;;;;5044981;28;20090;-70
2023/07/24 02:48:11;;;;;;;13.43;6.10;;;16.90;98.40;;;;;;5027474;28;20048;-70
2023/07/24 02:50:37;;;;;;;12.60;6.23;;;16.90;98.50;;;;;;5048134;28;20446;-70
2023/07/24 02:53:02;;;;;;;13.83;5.90;;;16.90;98.30;;;;;;5053406;28;20393;-71
2023/07/24 02:55:28;;;;;;;15.83;6.20;;;16.90;98.30;;;;;;5042203;28;20128;-70
2023/07/24 02:57:54;;;;;;;12.90;5.43;;;17.00;98.20;;;;;;5037077;28;20140;-70
2023/07/24 03:00:20;;;;;;;12.80;5.67;;;17.00;98.10;;;;;;5033456;28;20037;-70
2023/07/24 03:02:45;;;;;;;13.70;5.80;;;17.00;98.00;;;;;;5030083;28;20049;-71
2023/07/24 03:05:11;;;;;;;13.07;6.07;;;17.00;98.20;;;;;;5013741;28;20136;-70
2023/07/24 03:07:37;;;;;;;14.03;5.53;;;17.00;98.10;;;;;;5017435;28;20489;-70
2023/07/24 03:10:03;;;;;;;10.00;5.20;;;17.00;97.90;;;;;;5020544;28;20132;-70
2023/07/24 03:12:29;;;;;;;16.17;4.97;;;17.00;97.90;;;;;;5055110;28;20596;-70
2023/07/24 03:14:54;;;;;;;14.27;5.70;;;17.00;97.70;;;;;;5047821;28;20378;-70
2023/07/24 03:17:21;;;;;;;13.67;5.00;;;17.10;97.60;;;;;;5039381;28;20036;-70
2023/07/24 03:19:48;;;;;;;14.87;5.80;;;17.10;97.70;;;;;;5042569;28;20033;-70
2023/07/24 03:22:14;;;;;;;14.47;5.23;;;17.10;97.80;;;;;;5049198;28;20352;-70
2023/07/24 03:24:40;;;;;;;12.43;5.60;;;17.10;97.70;;;;;;5046680;28;20663;-70
2023/07/24 03:27:06;;;;;;;13.00;5.23;;;17.10;97.70;;;;;;5041628;28;20123;-70
2023/07/24 03:29:31;;;;;;;14.77;5.60;;;17.10;97.70;;;;;;5042387;28;20485;-70
2023/07/24 03:31:57;;;;;;;11.33;5.50;;;17.10;97.70;;;;;;5036288;28;20076;-70
2023/07/24 03:34:23;;;;;;;11.77;5.63;;;17.10;97.80;;;;;;5042493;28;20033;-70
2023/07/24 03:36:48;;;;;;;13.43;5.50;;;17.10;97.80;;;;;;5016955;28;20037;-70
2023/07/24 03:39:14;;;;;;;14.10;5.40;;;17.10;97.60;;;;;;5027979;28;20406;-70
2023/07/24 03:41:42;;;;;;;13.10;5.37;;;17.10;97.80;;;;;;5036926;28;20072;-70
2023/07/24 03:44:07;;;;;;;16.20;5.73;;;17.10;97.60;;;;;;5035960;28;20048;-71
2023/07/24 03:46:33;;;;;;;13.70;5.93;;;17.20;97.70;;;;;;5030641;28;20367;-71
2023/07/24 03:48:59;;;;;;;10.17;5.40;;;17.20;97.60;;;;;;5033692;28;20041;-71
2023/07/24 03:51:25;;;;;;;14.97;5.63;;;17.20;97.60;;;;;;5043553;28;20033;-70
2023/07/24 03:53:50;;;;;;;16.10;5.20;;;17.20;97.60;;;;;;5040630;28;20041;-71
2023/07/24 03:56:16;;;;;;;11.80;4.93;;;17.20;97.60;;;;;;5038292;28;20375;-70
2023/07/24 03:58:42;;;;;;;13.90;5.13;;;17.20;97.60;;;;;;5023952;28;20091;-70
2023/07/24 04:01:08;;;;;;;10.73;5.57;;;17.20;97.50;;;;;;5038347;28;20067;-70
2023/07/24 04:03:34;;;;;;;13.93;5.67;;;17.20;97.50;;;;;;5042601;28;20497;-70
2023/07/24 04:06:00;;;;;;;16.47;5.83;;;17.20;97.30;;;;;;5045311;28;20296;-70
2023/07/24 04:08:26;;;;;;;13.33;5.97;;;17.20;97.50;;;;;;5034377;28;20280;-71
2023/07/24 04:10:52;;;;;;;13.37;5.57;;;17.20;97.30;;;;;;5030865;28;20303;-70
2023/07/24 04:13:18;;;;;;;13.20;5.30;;;17.20;97.30;;;;;;5029609;28;20059;-70
2023/07/24 04:15:46;;;;;;;14.30;5.30;;;17.20;97.40;;;;;;5036983;28;20284;-70
2023/07/24 04:18:12;;;;;;;14.03;5.40;;;17.30;97.30;;;;;;5040793;28;20378;-70
2023/07/24 04:20:37;;;;;;;13.73;5.40;;;17.30;97.20;;;;;;5048827;28;20290;-70
2023/07/24 04:23:03;;;;;;;13.23;5.43;;;17.30;97.30;;;;;;5046867;28;20037;-70
2023/07/24 04:25:29;;;;;;;12.07;5.43;;;17.30;97.40;;;;;;5019695;28;20125;-70
2023/07/24 04:27:54;;;;;;;16.80;5.80;;;17.30;97.40;;;;;;5042461;28;20038;-70
2023/07/24 04:30:20;;;;;;;19.50;5.70;;;17.30;97.20;;;;;;5042849;28;20041;-70
2023/07/24 04:32:46;;;;;;;19.00;5.97;;;17.30;97.20;;;;;;5041157;28;20120;-70
2023/07/24 04:35:12;;;;;;;12.50;5.67;;;17.30;97.00;;;;;;5040372;28;20044;-70
2023/07/24 04:37:38;;;;;;;12.60;5.73;;;17.30;97.10;;;;;;5039999;28;20060;-70
2023/07/24 04:40:04;;;;;;;13.87;5.33;;;17.30;97.00;;;;;;5034455;28;20103;-70
2023/07/24 04:42:30;;;;;;;12.70;5.80;;;17.30;97.10;;;;;;5041332;28;20094;-70
2023/07/24 04:44:56;;;;;;;15.53;6.07;;;17.40;97.00;;;;;;5042916;28;20951;-71
2023/07/24 04:47:22;;;;;;;13.27;6.33;;;17.40;96.90;;;;;;5041096;28;20271;-71
2023/07/24 04:49:48;;;;;;;14.77;5.70;;;17.40;96.80;;;;;;5033276;28;20045;-70
2023/07/24 04:52:14;;;;;;;14.90;5.87;;;17.40;96.70;;;;;;5033509;28;20052;-70
2023/07/24 04:54:39;;;;;;;11.80;5.57;;;17.40;96.80;;;;;;5038928;28;20038;-70
2023/07/24 04:57:05;;;;;;;17.77;5.97;;;17.40;96.90;;;;;;5046156;28;20136;-71
2023/07/24 04:59:31;;;;;;;13.57;6.20;;;17.40;96.90;;;;;;5042942;28;20033;-70
2023/07/24 05:01:56;;;;;;;15.43;6.27;;;17.40;96.80;;;;;;5043448;28;20049;-70
2023/07/24 05:04:22;;;;;;;16.57;5.80;;;17.50;96.70;;;;;;5060904;28;20083;-70
2023/07/24 05:06:48;;;;;;;12.60;5.97;;;17.50;96.70;;;;;;5039843;28;20045;-70
2023/07/24 05:09:14;;;;;;;13.13;6.27;;;17.50;96.60;;;;;;5039287;28;20041;-71
2023/07/24 05:11:43;;;;;;;15.03;5.70;;;17.50;96.60;;;;;;5043037;28;20141;-70
2023/07/24 05:14:09;;;;;;;15.23;5.93;;;17.50;96.60;;;;;;5041000;28;20284;-71
2023/07/24 05:16:34;;;;;;;15.10;5.93;;;17.50;96.50;;;;;;5038489;28;20284;-70
2023/07/24 05:19:00;;;;;;;11.23;5.60;;;17.50;96.50;;;;;;5044146;28;21650;-70
2023/07/24 05:21:26;;;;;;;16.50;6.87;;;17.50;96.50;;;;;;5041431;28;20033;-70
2023/07/24 05:23:51;;;;;;;13.87;5.83;;;17.40;96.50;;;;;;5040551;28;20102;-70
2023/07/24 05:26:17;;;;;;;12.33;5.30;;;17.40;96.60;;;;;;5035566;28;20514;-70
2023/07/24 05:28:43;;;;;;;15.43;6.03;;;17.40;96.50;;;;;;5045058;28;20048;-70
2023/07/24 05:31:08;;;;;;;17.57;6.20;;;17.40;96.60;;;;;;5032398;28;20038;-70
2023/07/24 05:33:34;;;;;;;14.93;5.80;;;17.40;96.70;;;;;;5047397;28;20079;-70
2023/07/24 05:36:01;;;;;;;15.00;5.83;;;17.40;96.70;;;;;;5048038;28;20043;-70
2023/07/24 05:38:28;;;;;;;10.93;5.43;;;17.40;96.70;;;;;;5045356;28;20742;-70
2023/07/24 05:40:57;;;;;;;14.77;6.00;;;17.40;96.80;;;;;;5048313;28;20299;-70
2023/07/24 05:43:23;;;;;;;14.03;5.73;;;17.40;96.90;;;;;;5042453;28;20623;-70
2023/07/24 05:45:51;;;;;;;14.30;5.80;;;17.50;97.00;;;;;;5038396;28;20287;-70
2023/07/24 05:48:17;;;;;;;21.83;6.13;;;17.50;97.00;;;;;;5048848;28;20041;-70
2023/07/24 05:50:42;;;;;;;14.27;5.60;;;17.60;96.90;;;;;;5033218;28;20676;-70
2023/07/24 05:53:08;;;;;;;17.03;6.60;;;17.60;96.90;;;;;;5036998;28;20057;-70
2023/07/24 05:55:34;;;;;;;12.73;5.77;;;17.70;96.90;;;;;;5038396;28;20390;-70
2023/07/24 05:57:59;;;;;;;19.33;6.03;;;17.70;96.70;;;;;;5032727;28;20175;-70
2023/07/24 06:00:25;;;;;;;16.60;6.20;;;17.70;96.60;;;;;;5033659;28;20048;-70
2023/07/24 06:02:51;;;;;;;17.27;5.83;;;17.80;96.40;;;;;;5032349;28;20097;-70
2023/07/24 06:05:16;;;;;;;16.73;5.63;;;17.90;96.50;;;;;;5047151;28;20044;-70
2023/07/24 06:07:42;;;;;;;13.37;5.50;;;17.90;96.40;;;;;;5039695;28;20326;-70
2023/07/24 06:10:08;;;;;;;21.07;6.50;;;18.00;96.20;;;;;;5035784;28;20049;-70
2023/07/24 06:12:34;;;;;;;15.03;6.20;;;18.10;96.00;;;;;;5043081;28;20481;-70
2023/07/24 06:14:59;;;;;;;17.60;6.80;;;18.10;95.90;;;;;;5044128;28;20045;-70
2023/07/24 06:17:25;;;;;;;14.57;6.60;;;18.20;95.80;;;;;;5041679;28;20041;-70
2023/07/24 06:19:51;;;;;;;14.00;6.00;;;18.20;95.30;;;;;;5044864;28;20126;-70
2023/07/24 06:22:17;;;;;;;16.40;6.77;;;18.20;95.30;;;;;;5048622;28;20048;-70
2023/07/24 06:24:42;;;;;;;16.00;6.33;;;18.30;95.20;;;;;;5046461;28;20047;-70
2023/07/24 06:27:08;;;;;;;17.90;6.60;;;18.30;94.90;;;;;;5042293;28;20044;-70
2023/07/24 06:29:34;;;;;;;17.10;6.20;;;18.30;94.70;;;;;;5041616;28;20040;-71
2023/07/24 06:31:59;;;;;;;13.83;6.00;;;18.30;94.80;;;;;;5046088;28;20047;-70
2023/07/24 06:34:25;;;;;;;18.83;6.60;;;18.30;94.30;;;;;;5048550;28;20046;-70
2023/07/24 06:36:51;;;;;;;19.17;6.80;;;18.30;94.50;;;;;;5045923;28;20044;-70
2023/07/24 06:39:16;;;;;;;17.77;7.20;;;18.30;94.50;;;;;;5046746;28;20120;-71
2023/07/24 06:41:42;;;;;;;14.87;6.33;;;18.20;94.30;;;;;;5038331;28;20037;-70
2023/07/24 06:44:08;;;;;;;15.13;6.97;;;18.20;94.30;;;;;;5041429;28;20045;-70
2023/07/24 06:46:34;;;;;;;19.77;6.63;;;18.20;94.40;;;;;;5034895;28;20052;-70
2023/07/24 06:48:59;;;;;;;15.23;6.50;;;18.20;94.50;;;;;;5043621;28;20037;-70
2023/07/24 06:51:25;;;;;;;13.83;6.97;;;18.20;94.40;;;;;;5039131;28;20045;-70
2023/07/24 06:53:51;;;;;;;17.17;6.93;;;18.30;94.50;;;;;;5039921;28;20067;-70
2023/07/24 06:56:16;;;;;;;18.77;7.33;;;18.30;94.40;;;;;;5047179;28;20051;-70
2023/07/24 06:58:42;;;;;;;21.20;7.60;;;18.40;94.00;;;;;;5039743;28;20040;-70
2023/07/24 07:01:08;;;;;;;13.73;7.30;;;18.40;94.00;;;;;;5041740;28;20128;-71
2023/07/24 07:03:35;;;;;;;16.60;6.63;;;18.50;94.20;;;;;;5041289;28;20562;-70
2023/07/24 07:06:01;;;;;;;19.07;7.03;;;18.60;94.00;;;;;;5039675;28;20052;-70
2023/07/24 07:08:27;;;;;;;14.93;7.03;;;18.70;93.50;;;;;;5061387;28;20114;-71
2023/07/24 07:10:57;;;;;;;20.23;8.40;;;18.80;93.40;;;;;;5046397;28;20509;-70
2023/07/24 07:13:23;;;;;;;20.07;7.70;;;18.90;93.30;;;;;;5042931;28;20120;-71
2023/07/24 07:15:48;;;;;;;19.00;7.80;;;19.00;93.20;;;;;;5040584;28;20160;-71
2023/07/24 07:18:14;;;;;;;16.43;7.03;;;19.00;92.70;;;;;;5040579;28;20036;-72
2023/07/24 07:20:46;;;;;;;17.67;8.03;;;19.10;92.50;;;;;;5043271;28;20044;-71
2023/07/24 07:23:12;;;;;;;23.33;7.60;;;19.20;92.10;;;;;;5031518;28;20088;-70
2023/07/24 07:25:37;;;;;;;16.37;7.00;;;19.30;91.80;;;;;;5043116;28;20053;-71
2023/07/24 07:28:03;;;;;;;15.60;6.97;;;19.30;91.50;;;;;;5047625;28;20402;-71
2023/07/24 07:30:29;;;;;;;15.73;6.67;;;19.30;90.30;;;;;;5036775;28;20034;-70
2023/07/24 07:32:55;;;;;;;14.60;6.73;;;19.30;90.90;;;;;;5016282;28;20051;-70
2023/07/24 07:35:20;;;;;;;14.33;7.27;;;19.30;90.70;;;;;;5037005;28;20034;-70
2023/07/24 07:37:46;;;;;;;17.07;7.03;;;19.30;90.20;;;;;;5035981;28;20069;-71
2023/07/24 07:40:12;;;;;;;15.53;7.03;;;19.30;90.00;;;;;;5036885;28;20474;-70
2023/07/24 07:42:38;;;;;;;14.80;7.17;;;19.30;90.10;;;;;;5021535;28;20634;-71
2023/07/24 07:45:04;;;;;;;20.60;7.20;;;19.30;90.20;;;;;;5035108;28;20116;-71
2023/07/24 07:47:30;;;;;;;19.47;6.80;;;19.30;90.00;;;;;;5038925;28;20397;-71
2023/07/24 07:49:56;;;;;;;15.87;8.23;;;19.40;90.10;;;;;;5040718;28;20036;-71
2023/07/24 07:52:22;;;;;;;16.80;6.93;;;19.50;90.00;;;;;;5040970;28;20041;-71
2023/07/24 07:54:50;;;;;;;18.70;6.80;;;19.50;88.70;;;;;;5041700;28;20041;-71
2023/07/24 07:57:16;;;;;;;15.40;6.60;;;19.60;89.30;;;;;;5040318;28;20044;-71
2023/07/24 07:59:42;;;;;;;15.63;7.23;;;19.70;89.00;;;;;;5020050;28;20037;-71
2023/07/24 08:02:08;;;;;;;18.30;6.90;;;19.90;88.90;;;;;;5043826;28;20083;-71
2023/07/24 08:04:34;;;;;;;15.30;6.40;;;20.10;88.60;;;;;;5043891;28;20119;-71
2023/07/24 08:06:59;;;;;;;13.47;6.60;;;20.30;88.30;;;;;;5032024;28;20045;-71
2023/07/24 08:09:25;;;;;;;18.03;7.67;;;20.50;86.70;;;;;;5045965;28;20049;-71
2023/07/24 08:11:51;;;;;;;12.90;6.23;;;20.70;85.20;;;;;;5041148;28;20037;-71
2023/07/24 08:14:17;;;;;;;10.60;5.87;;;20.90;85.30;;;;;;5039641;28;20124;-71
2023/07/24 08:16:43;;;;;;;12.17;6.10;;;21.10;84.90;;;;;;5041354;28;20416;-71
2023/07/24 08:19:09;;;;;;;17.20;6.57;;;21.20;83.90;;;;;;5042389;28;20047;-71
2023/07/24 08:21:35;;;;;;;11.93;5.73;;;21.20;82.60;;;;;;5041999;28;20128;-71
2023/07/24 08:24:02;;;;;;;14.23;6.83;;;21.20;82.90;;;;;;5040552;28;20075;-71
2023/07/24 08:26:27;;;;;;;15.23;6.50;;;21.20;81.00;;;;;;5043663;28;20065;-71
2023/07/24 08:28:53;;;;;;;12.57;5.80;;;21.20;82.10;;;;;;5038961;28;20046;-71
2023/07/24 08:31:19;;;;;;;13.27;5.90;;;21.30;81.20;;;;;;5047149;28;20148;-71
2023/07/24 08:33:45;;;;;;;12.03;6.10;;;21.40;81.80;;;;;;5044084;28;20029;-71
2023/07/24 08:36:13;;;;;;;10.10;5.43;;;21.60;82.00;;;;;;5044564;28;20106;-71
2023/07/24 08:38:40;;;;;;;14.53;5.90;;;21.90;80.10;;;;;;5027298;28;20072;-71
2023/07/24 08:41:11;;;;;;;12.90;6.00;;;22.20;79.60;;;;;;5045658;28;20033;-71
2023/07/24 08:43:39;;;;;;;11.37;6.00;;;22.40;79.00;;;;;;5034778;28;20506;-71
2023/07/24 08:46:06;;;;;;;12.87;5.90;;;22.70;78.20;;;;;;5042293;28;20051;-71
2023/07/24 08:48:37;;;;;;;8.77;5.30;;;22.80;76.40;;;;;;5032083;28;20045;-71
2023/07/24 08:51:05;;;;;;;9.47;5.50;;;22.80;74.30;;;;;;5028253;28;20041;-71
2023/07/24 08:53:36;;;;;;;11.23;5.67;;;22.70;75.50;;;;;;5049824;28;20069;-71
2023/07/24 08:56:07;;;;;;;12.60;5.63;;;22.70;75.20;;;;;;5043784;28;20393;-71
2023/07/24 08:58:33;;;;;;;10.83;5.97;;;22.80;75.50;;;;;;5046546;28;20105;-71
2023/07/24 09:01:00;;;;;;;9.83;5.37;;;23.00;74.50;;;;;;5045700;28;20045;-71
2023/07/24 09:03:27;;;;;;;10.23;5.03;;;23.20;74.70;;;;;;5045812;28;20088;-71
2023/07/24 09:05:53;;;;;;;10.47;5.33;;;23.40;74.00;;;;;;5041043;28;20272;-71
2023/07/24 09:08:32;;;;;;;10.90;5.63;;;23.60;72.20;;;;;;5028658;28;20037;-71
2023/07/24 09:10:59;;;;;;;11.03;5.50;;;23.60;71.90;;;;;;5021861;28;20079;-71
2023/07/24 09:13:25;;;;;;;11.67;5.53;;;23.60;70.90;;;;;;5038701;28;20049;-71
2023/07/24 09:15:51;;;;;;;12.33;6.33;;;23.60;71.10;;;;;;5032760;28;20034;-71
2023/07/24 09:18:18;;;;;;;7.90;4.93;;;23.60;71.20;;;;;;5033129;28;20516;-71
2023/07/24 09:20:44;;;;;;;12.10;5.27;;;23.70;72.40;;;;;;5044708;28;20151;-71
2023/07/24 09:23:12;;;;;;;12.40;5.30;;;24.10;72.40;;;;;;5027416;28;20290;-71
2023/07/24 09:25:40;;;;;;;11.90;5.73;;;24.40;70.80;;;;;;5035775;28;20045;-71
2023/07/24 09:28:18;;;;;;;12.27;6.50;;;24.40;69.90;;;;;;5045170;28;20037;-71
2023/07/24 09:30:55;;;;;;;9.60;4.60;;;23.90;68.70;;;;;;5029825;28;20694;-71
2023/07/24 09:33:35;;;;;;;11.30;4.30;;;23.60;70.00;;;;;;5032696;28;20386;-71
2023/07/24 09:36:03;;;;;;;8.47;4.53;;;23.10;71.70;;;;;;5036193;28;20072;-71
2023/07/24 09:38:29;;;;;;;8.90;4.97;;;22.50;73.60;;;;;;5034727;28;20048;-71
2023/07/24 09:40:56;;;;;;;6.13;4.83;;;22.10;75.00;;;;;;5040729;28;20045;-71
2023/07/24 09:43:24;;;;;;;6.70;4.87;;;21.60;76.50;;;;;;5049430;28;20037;-71
2023/07/24 09:45:52;;;;;;;8.93;5.97;;;21.30;78.90;;;;;;5043143;28;20045;-71
2023/07/24 09:48:19;;;;;;;9.77;5.90;;;21.00;81.00;;;;;;5032344;28;20041;-71
2023/07/24 09:50:52;;;;;;;10.47;7.30;;;20.70;81.70;;;;;;5030834;28;20041;-71
2023/07/24 09:53:24;;;;;;;12.13;7.60;;;20.50;82.60;;;;;;5035219;28;20085;-71
2023/07/24 09:56:08;;;;;;;13.50;8.07;;;20.20;85.40;;;;;;5021718;28;20424;-71
2023/07/24 09:58:36;;;;;;;15.00;8.13;;;20.10;86.20;;;;;;5021636;28;20489;-72
2023/07/24 10:01:05;;;;;;;16.90;8.50;;;19.80;88.10;;;;;;5047575;28;20045;-73
2023/07/24 10:03:35;;;;;;;13.60;7.57;;;19.50;88.90;;;;;;5031975;28;20061;-73
2023/07/24 10:06:01;;;;;;;12.87;7.93;;;19.20;90.50;;;;;;5044466;28;20349;-73
2023/07/24 10:08:27;;;;;;;16.07;9.37;;;18.90;92.10;;;;;;5066562;28;20041;-73
2023/07/24 10:10:53;;;;;;;14.83;8.93;;;18.80;92.60;;;;;;5029034;28;20033;-73
2023/07/24 10:13:21;;;;;;;14.07;8.97;;;19.00;93.50;;;;;;5030738;28;20085;-73
2023/07/24 10:15:48;;;;;;;11.43;8.97;;;19.20;94.00;;;;;;5042554;28;20034;-73
2023/07/24 10:18:16;;;;;;;13.37;8.30;;;19.60;95.00;;;;;;5047935;28;20523;-72
2023/07/24 10:20:42;;;;;;;10.20;8.03;;;20.00;92.60;;;;;;5062254;28;20048;-72
2023/07/24 10:23:10;;;;;;;12.70;8.20;;;20.30;91.70;;;;;;5042783;28;20409;-72
2023/07/24 10:25:43;;;;;;;15.33;9.53;;;20.40;90.00;;;;;;5064368;28;20033;-72
2023/07/24 10:28:16;;;;;;;13.40;9.60;;;20.40;89.80;;;;;;5043915;28;20051;-72
2023/07/24 10:30:42;;;;;;;13.47;9.43;;;20.50;88.90;;;;;;5029101;28;20037;-72
2023/07/24 10:33:11;;;;;;;10.70;6.97;;;20.70;89.50;;;;;;5033288;28;20045;-72
2023/07/24 10:35:38;;;;;;;11.73;7.27;;;20.90;86.90;;;;;;5044226;28;20108;-72
2023/07/24 10:38:04;;;;;;;10.13;6.37;;;21.10;87.40;;;;;;5038530;28;20025;-72
2023/07/24 10:40:30;;;;;;;7.63;5.90;;;21.30;86.10;;;;;;5039373;28;20094;-71
2023/07/24 10:43:20;;;;;;;10.27;6.60;;;21.70;84.30;;;;;;5033580;28;20041;-71
2023/07/24 10:45:51;;;;;;;9.07;6.27;;;22.00;83.50;;;;;;5025494;28;20040;-71
2023/07/24 10:48:21;;;;;;;10.40;6.70;;;22.50;83.80;;;;;;5033758;28;20052;-71
2023/07/24 10:50:49;;;;;;;10.10;7.83;;;22.80;81.50;;;;;;5037856;28;20048;-71
2023/07/24 10:53:19;;;;;;;12.00;8.20;;;23.00;81.30;;;;;;5036223;28;20171;-71
2023/07/24 10:55:50;;;;;;;11.47;7.53;;;23.10;79.70;;;;;;5020463;28;20128;-70
2023/07/24 10:58:16;;;;;;;9.07;7.57;;;23.20;79.50;;;;;;5026935;28;20397;-70
2023/07/24 11:00:46;;;;;;;8.73;7.83;;;23.00;77.90;;;;;;5034604;28;20048;-71
2023/07/24 11:03:14;;;;;;;11.63;7.97;;;22.70;77.40;;;;;;5038700;28;20048;-71
2023/07/24 11:05:41;;;;;;;9.57;7.90;;;22.30;77.50;;;;;;5035512;28;20052;-71
2023/07/24 11:08:18;;;;;;;9.77;7.47;;;22.00;78.00;;;;;;5038800;28;20041;-71
2023/07/24 11:10:52;;;;;;;8.97;6.83;;;21.80;78.40;;;;;;5037237;28;20046;-71
2023/07/24 11:13:26;;;;;;;6.97;5.90;;;21.60;79.90;;;;;;5038993;28;20456;-70
2023/07/24 11:15:53;;;;;;;7.65;4.70;;;21.60;79.20;;;;;;5031084;28;20076;-71
2023/07/24 11:18:26;;;;;;;7.40;5.60;;;21.70;79.50;;;;;;5057670;28;20072;-70
2023/07/24 11:20:55;;;;;;;6.80;5.10;;;21.70;78.50;;;;;;5040897;28;20037;-71
2023/07/24 11:23:23;;;;;;;6.77;5.47;;;21.80;78.20;;;;;;5036706;28;20044;-71
2023/07/24 11:25:53;;;;;;;8.17;6.10;;;22.00;78.20;;;;;;5043508;28;20122;-71
2023/07/24 11:28:19;;;;;;;7.63;5.27;;;22.40;79.00;;;;;;5023304;28;20053;-71
2023/07/24 11:30:45;;;;;;;7.33;5.33;;;22.60;75.70;;;;;;5046568;28;20098;-71
2023/07/24 11:33:14;;;;;;;6.70;6.07;;;22.60;75.10;;;;;;5045749;28;20405;-71
2023/07/24 11:35:40;;;;;;;6.23;5.43;;;22.40;72.10;;;;;;5039705;28;20052;-71
2023/07/24 11:38:09;;;;;;;7.37;5.47;;;22.00;74.20;;;;;;5037183;28;20029;-71
2023/07/24 11:40:43;;;;;;;7.10;5.00;;;21.80;74.60;;;;;;5035374;28;20072;-71
2023/07/24 11:43:29;;;;;;;6.07;4.68;;;21.70;75.60;;;;;;5038072;28;20049;-71
2023/07/24 11:45:56;;;;;;;4.97;3.87;;;21.90;74.00;;;;;;5037036;28;20398;-71
2023/07/24 11:48:24;;;;;;;5.90;3.47;;;21.80;72.90;;;;;;5039772;28;20053;-71
2023/07/24 11:50:54;;;;;;;3.30;2.80;;;21.70;73.90;;;;;;5036831;28;20195;-71
2023/07/24 11:53:21;;;;;;;3.00;2.70;;;21.60;72.80;;;;;;5041592;28;20091;-71
2023/07/24 11:55:48;;;;;;;3.00;2.70;;;21.60;72.20;;;;;;5043777;28;20048;-71
2023/07/24 11:58:16;;;;;;;4.40;3.00;;;21.80;73.30;;;;;;5044507;28;20418;-71
2023/07/24 12:00:42;;;;;;;2.87;2.47;;;22.00;72.40;;;;;;5037286;28;20040;-71
2023/07/24 12:03:08;;;;;;;4.20;2.50;;;22.20;71.40;;;;;;5040678;28;20065;-71
2023/07/24 12:05:43;;;;;;;2.90;2.20;;;22.20;69.90;;;;;;5020076;28;20048;-71
2023/07/24 12:08:10;;;;;;;3.67;2.40;;;22.30;70.80;;;;;;5032539;28;20107;-71
2023/07/24 12:10:38;;;;;;;2.80;1.90;;;22.30;69.40;;;;;;5030636;28;20096;-71
2023/07/24 12:13:05;;;;;;;2.63;1.83;;;22.20;69.50;;;;;;5036576;28;20560;-71
2023/07/24 12:15:32;;;;;;;1.73;1.30;;;22.20;70.00;;;;;;5026288;28;20084;-71
2023/07/24 12:17:58;;;;;;;1.37;1.17;;;22.30;70.20;;;;;;5033010;28;20076;-71
2023/07/24 12:20:24;;;;;;;1.50;1.10;;;22.40;70.20;;;;;;5026979;28;20072;-71
2023/07/24 12:22:50;;;;;;;3.17;0.90;;;22.50;69.00;;;;;;5040764;28;20168;-71
2023/07/24 12:25:16;;;;;;;2.37;0.90;;;22.60;70.60;;;;;;5041498;28;20564;-71
2023/07/24 12:27:42;;;;;;;1.83;0.80;;;22.60;67.80;;;;;;5040166;28;20068;-71
2023/07/24 12:30:08;;;;;;;2.63;0.90;;;22.60;69.40;;;;;;5053934;28;20038;-71
2023/07/24 12:32:34;;;;;;;1.67;0.60;;;22.50;68.60;;;;;;5045704;28;20466;-71
2023/07/24 12:35:01;;;;;;;1.60;0.77;;;22.60;69.40;;;;;;5036702;28;20394;-70
2023/07/24 12:37:26;;;;;;;2.77;1.20;;;22.50;69.20;;;;;;5039462;28;20084;-71